Time;durP1;ratioP1;P1;durP2;ratioP2;P2;SDS_P1;SDS_P2;PMS_P1;PMS_P2;Temp;Humidity;BMP_temperature;BMP_pressure;BME280_temperature;BME280_humidity;BME280_pressure;Samples;Min_cycle;Max_cycle;Signal;HPM_P1;HPM_P2
2020/12/24 00:00:31;;;;;;;2.40;1.08;;;9.30;99.30;;;;;;5047036;28;20032;-45
2020/12/24 00:02:56;;;;;;;2.33;1.00;;;9.30;99.40;;;;;;5047004;28;20025;-44
2020/12/24 00:05:22;;;;;;;3.33;1.00;;;9.30;99.50;;;;;;5046272;28;20028;-44
2020/12/24 00:07:48;;;;;;;3.45;1.30;;;9.30;99.50;;;;;;5046603;28;20045;-44
2020/12/24 00:10:13;;;;;;;1.77;1.10;;;9.30;99.60;;;;;;5046377;28;20024;-44
2020/12/24 00:12:39;;;;;;;3.38;1.15;;;9.30;99.60;;;;;;5046569;28;20348;-45
2020/12/24 00:15:06;;;;;;;2.03;1.00;;;9.30;99.60;;;;;;5047123;28;20365;-44
2020/12/24 00:17:32;;;;;;;4.53;1.10;;;9.30;99.60;;;;;;5045808;28;20057;-45
2020/12/24 00:20:00;;;;;;;2.65;1.15;;;9.30;99.60;;;;;;5046338;28;20028;-45
2020/12/24 00:22:26;;;;;;;3.20;1.30;;;9.40;99.70;;;;;;5046604;28;20070;-44
2020/12/24 00:24:51;;;;;;;2.75;1.13;;;9.30;99.70;;;;;;5045921;28;20047;-44
2020/12/24 00:27:17;;;;;;;3.35;1.17;;;9.30;99.80;;;;;;5046220;28;20555;-44
2020/12/24 00:29:43;;;;;;;2.50;1.35;;;9.40;99.80;;;;;;5046560;28;20028;-45
2020/12/24 00:32:08;;;;;;;4.07;1.65;;;9.40;99.70;;;;;;5045879;28;20024;-44
2020/12/24 00:34:34;;;;;;;3.38;1.88;;;9.40;99.60;;;;;;5045551;28;20116;-44
2020/12/24 00:36:59;;;;;;;3.65;1.92;;;9.40;99.60;;;;;;5046384;28;20021;-43
2020/12/24 00:39:25;;;;;;;2.45;1.40;;;9.40;99.60;;;;;;5045653;28;20362;-44
2020/12/24 00:41:51;;;;;;;2.97;1.40;;;9.40;99.60;;;;;;5046043;28;20021;-44
2020/12/24 00:44:18;;;;;;;3.17;1.60;;;9.40;99.70;;;;;;5046261;28;20028;-44
2020/12/24 00:46:43;;;;;;;2.83;1.83;;;9.40;99.70;;;;;;5045496;28;20456;-44
2020/12/24 00:49:09;;;;;;;1.98;1.42;;;9.40;99.60;;;;;;5045810;28;20112;-45
2020/12/24 00:51:34;;;;;;;3.25;2.00;;;9.40;99.60;;;;;;5046270;28;20017;-44
2020/12/24 00:54:00;;;;;;;3.53;1.92;;;9.30;99.60;;;;;;5045589;28;20064;-44
2020/12/24 00:56:25;;;;;;;3.97;1.92;;;9.40;99.70;;;;;;5046014;28;20021;-43
2020/12/24 00:58:51;;;;;;;3.05;1.65;;;9.40;99.70;;;;;;5045920;28;20428;-44
2020/12/24 01:01:16;;;;;;;3.72;1.85;;;9.40;99.70;;;;;;5045741;28;20021;-44
2020/12/24 01:03:42;;;;;;;3.00;2.10;;;9.40;99.60;;;;;;5045556;28;20419;-44
2020/12/24 01:06:07;;;;;;;3.15;1.83;;;9.40;99.70;;;;;;5045923;28;20044;-44
2020/12/24 01:08:33;;;;;;;3.88;2.00;;;9.40;99.70;;;;;;5046055;28;20487;-43
2020/12/24 01:10:58;;;;;;;4.60;2.50;;;9.40;99.60;;;;;;5045993;28;20021;-44
2020/12/24 01:13:24;;;;;;;5.18;2.00;;;9.40;99.60;;;;;;5045414;28;20065;-44
2020/12/24 01:15:49;;;;;;;10.68;2.45;;;9.40;99.60;;;;;;5045589;28;20043;-44
2020/12/24 01:18:15;;;;;;;6.32;2.60;;;9.40;99.50;;;;;;5045703;28;20803;-44
2020/12/24 01:20:40;;;;;;;12.32;2.30;;;9.30;99.30;;;;;;5045364;28;20017;-44
2020/12/24 01:23:06;;;;;;;7.40;2.33;;;9.30;99.30;;;;;;5046102;28;20380;-43
2020/12/24 01:25:32;;;;;;;8.55;2.13;;;9.30;99.20;;;;;;5045869;28;20040;-44
2020/12/24 01:27:59;;;;;;;9.60;2.17;;;9.20;99.20;;;;;;5045220;28;20035;-44
2020/12/24 01:30:24;;;;;;;5.88;1.73;;;9.20;99.10;;;;;;5045490;28;20448;-44
2020/12/24 01:32:50;;;;;;;5.88;1.75;;;9.20;99.10;;;;;;5045507;28;20124;-43
2020/12/24 01:35:15;;;;;;;6.85;1.83;;;9.10;99.00;;;;;;5045106;28;20033;-43
2020/12/24 01:37:41;;;;;;;7.22;1.92;;;9.10;99.00;;;;;;5045480;28;20025;-43
2020/12/24 01:40:06;;;;;;;6.47;1.63;;;9.10;98.80;;;;;;5045264;28;20513;-43
2020/12/24 01:42:32;;;;;;;4.80;1.45;;;9.00;98.70;;;;;;5045645;28;20017;-43
2020/12/24 01:44:57;;;;;;;2.75;1.10;;;9.00;98.60;;;;;;5046961;28;20138;-43
2020/12/24 01:47:23;;;;;;;3.40;1.45;;;8.90;98.50;;;;;;5048921;28;20017;-43
2020/12/24 01:49:48;;;;;;;3.97;1.05;;;8.90;98.60;;;;;;5049186;28;20032;-44
2020/12/24 01:52:34;;;;;;;4.35;1.10;;;8.90;98.70;;;;;;5049228;28;20071;-44
2020/12/24 01:55:02;;;;;;;6.68;1.88;;;8.80;98.70;;;;;;5049135;28;20512;-44
2020/12/24 01:57:28;;;;;;;2.33;1.17;;;8.80;98.80;;;;;;5049301;28;20029;-43
2020/12/24 01:59:55;;;;;;;6.18;1.27;;;8.80;98.80;;;;;;5048764;28;20023;-43
2020/12/24 02:02:21;;;;;;;2.75;1.10;;;8.80;98.90;;;;;;5049043;28;20075;-43
2020/12/24 02:04:47;;;;;;;3.63;1.30;;;8.80;98.90;;;;;;5048660;28;20025;-43
2020/12/24 02:07:17;;;;;;;6.47;1.42;;;8.80;99.00;;;;;;5049245;28;20025;-43
2020/12/24 02:09:47;;;;;;;6.35;1.13;;;8.80;98.90;;;;;;5048354;28;20036;-43
2020/12/24 02:12:13;;;;;;;7.22;1.33;;;8.80;98.90;;;;;;5048610;28;20116;-43
2020/12/24 02:14:39;;;;;;;4.25;1.33;;;8.80;98.90;;;;;;5048805;28;20224;-45
2020/12/24 02:17:05;;;;;;;4.43;1.20;;;8.80;98.90;;;;;;5048380;28;20060;-44
2020/12/24 02:19:30;;;;;;;3.30;1.40;;;8.90;98.90;;;;;;5049175;28;20029;-44
2020/12/24 02:21:55;;;;;;;6.00;1.60;;;8.90;98.80;;;;;;5048727;28;20025;-45
2020/12/24 02:24:21;;;;;;;9.70;1.83;;;8.80;98.80;;;;;;5048004;28;20447;-44
2020/12/24 02:26:46;;;;;;;5.57;1.90;;;8.80;98.80;;;;;;5048397;28;20548;-43
2020/12/24 02:29:12;;;;;;;5.32;1.42;;;8.80;98.80;;;;;;5048418;28;20024;-44
2020/12/24 02:31:37;;;;;;;6.97;1.73;;;8.80;98.80;;;;;;5048340;28;20473;-44
2020/12/24 02:34:03;;;;;;;4.97;1.65;;;8.80;98.60;;;;;;5048541;28;20037;-44
2020/12/24 02:36:28;;;;;;;8.05;2.05;;;8.90;98.70;;;;;;5048385;28;20033;-44
2020/12/24 02:38:54;;;;;;;8.93;1.77;;;8.80;98.70;;;;;;5047943;28;20025;-43
2020/12/24 02:41:19;;;;;;;4.07;1.45;;;8.80;98.60;;;;;;5048613;28;20055;-44
2020/12/24 02:43:47;;;;;;;7.30;2.10;;;8.90;98.70;;;;;;5048133;28;20036;-43
2020/12/24 02:46:13;;;;;;;6.40;1.75;;;8.80;98.70;;;;;;5047943;28;20035;-44
2020/12/24 02:48:38;;;;;;;7.80;2.10;;;8.80;98.60;;;;;;5048230;28;20029;-44
2020/12/24 02:51:04;;;;;;;8.93;1.75;;;8.80;98.50;;;;;;5048685;28;20495;-44
2020/12/24 02:53:30;;;;;;;12.18;2.08;;;8.80;98.50;;;;;;5047501;28;20515;-44
2020/12/24 02:55:55;;;;;;;6.78;2.08;;;8.90;98.60;;;;;;5047265;28;20025;-43
2020/12/24 02:58:21;;;;;;;13.02;2.60;;;8.80;98.60;;;;;;5047711;28;20115;-43
2020/12/24 03:00:47;;;;;;;10.38;2.30;;;8.80;98.30;;;;;;5047314;28;20453;-44
2020/12/24 03:03:12;;;;;;;7.95;2.67;;;8.90;98.40;;;;;;5047816;28;20029;-43
2020/12/24 03:05:38;;;;;;;12.52;3.08;;;8.90;98.40;;;;;;5048358;28;20504;-43
2020/12/24 03:08:03;;;;;;;8.65;1.70;;;8.90;98.40;;;;;;5047655;28;20566;-44
2020/12/24 03:10:29;;;;;;;10.57;2.10;;;8.90;98.40;;;;;;5047485;28;20039;-43
2020/12/24 03:12:54;;;;;;;7.95;2.08;;;8.90;98.50;;;;;;5047686;28;20071;-44
2020/12/24 03:15:20;;;;;;;10.07;2.47;;;8.90;98.40;;;;;;5047291;28;20110;-44
2020/12/24 03:17:45;;;;;;;9.40;2.17;;;8.90;98.30;;;;;;5047465;28;20091;-43
2020/12/24 03:20:11;;;;;;;5.93;2.40;;;8.90;98.30;;;;;;5047557;28;20159;-43
2020/12/24 03:22:38;;;;;;;8.85;2.20;;;8.90;98.30;;;;;;5047894;28;20040;-44
2020/12/24 03:25:04;;;;;;;5.38;2.22;;;8.90;98.30;;;;;;5047437;28;20033;-43
2020/12/24 03:27:29;;;;;;;8.65;2.00;;;8.90;98.30;;;;;;5046845;28;20167;-43
2020/12/24 03:29:56;;;;;;;10.38;2.25;;;8.90;98.30;;;;;;5047502;28;20060;-43
2020/12/24 03:32:21;;;;;;;7.68;2.35;;;9.00;98.20;;;;;;5047278;28;20365;-43
2020/12/24 03:34:47;;;;;;;7.57;2.22;;;8.90;98.20;;;;;;5046758;28;20040;-43
2020/12/24 03:37:12;;;;;;;4.85;1.92;;;9.00;98.30;;;;;;5047028;28;20029;-44
2020/12/24 03:39:38;;;;;;;10.20;2.53;;;8.90;98.20;;;;;;5047573;28;20043;-43
2020/12/24 03:42:03;;;;;;;7.88;2.08;;;8.90;98.30;;;;;;5046869;28;20418;-43
2020/12/24 03:44:29;;;;;;;10.32;2.28;;;8.90;98.30;;;;;;5047311;28;20028;-44
2020/12/24 03:46:54;;;;;;;7.28;1.92;;;8.90;98.20;;;;;;5047375;28;20037;-43
2020/12/24 03:49:20;;;;;;;8.93;2.30;;;8.90;98.30;;;;;;5046530;28;20078;-43
2020/12/24 03:51:45;;;;;;;7.18;2.13;;;8.90;98.30;;;;;;5046942;28;20034;-43
2020/12/24 03:54:11;;;;;;;6.22;1.52;;;8.90;98.50;;;;;;5046750;28;20396;-45
2020/12/24 03:56:36;;;;;;;7.85;2.00;;;8.90;98.30;;;;;;5046530;28;20021;-43
2020/12/24 03:59:02;;;;;;;9.15;2.28;;;8.90;98.30;;;;;;5047298;28;20801;-43
2020/12/24 04:01:27;;;;;;;9.07;2.15;;;8.90;98.30;;;;;;5046772;28;20789;-44
2020/12/24 04:03:53;;;;;;;9.63;2.20;;;8.90;98.30;;;;;;5046610;28;20079;-44
2020/12/24 04:06:18;;;;;;;10.10;2.53;;;8.90;98.20;;;;;;5046631;28;20644;-44
2020/12/24 04:08:44;;;;;;;7.30;1.90;;;8.90;98.30;;;;;;5045559;28;20178;-43
2020/12/24 04:11:09;;;;;;;6.05;2.00;;;9.00;98.30;;;;;;5046218;28;20131;-43
2020/12/24 04:13:35;;;;;;;9.25;2.42;;;9.00;98.30;;;;;;5046850;28;20535;-44
2020/12/24 04:16:00;;;;;;;9.30;1.98;;;9.00;98.30;;;;;;5046326;28;20099;-44
2020/12/24 04:18:26;;;;;;;10.68;2.28;;;9.00;98.30;;;;;;5046378;28;20032;-44
2020/12/24 04:20:51;;;;;;;5.57;1.90;;;9.00;98.30;;;;;;5046301;28;20025;-43
2020/12/24 04:23:17;;;;;;;7.78;1.80;;;9.00;98.30;;;;;;5046183;28;20099;-43
2020/12/24 04:25:42;;;;;;;5.78;2.00;;;9.00;98.20;;;;;;5045944;28;20025;-43
2020/12/24 04:28:08;;;;;;;7.13;1.80;;;9.00;98.30;;;;;;5046278;28;20029;-44
2020/12/24 04:30:33;;;;;;;7.80;1.90;;;9.10;98.30;;;;;;5046316;28;20033;-44
2020/12/24 04:32:59;;;;;;;11.18;2.28;;;9.00;98.20;;;;;;5046321;28;20049;-43
2020/12/24 04:35:24;;;;;;;9.55;2.55;;;9.00;98.20;;;;;;5046046;28;20036;-44
2020/12/24 04:37:50;;;;;;;10.98;2.30;;;9.00;98.10;;;;;;5045676;28;20029;-44
2020/12/24 04:40:16;;;;;;;9.55;2.15;;;9.00;98.10;;;;;;5046105;28;20056;-44
2020/12/24 04:42:42;;;;;;;13.98;2.17;;;9.00;98.20;;;;;;5046633;28;20037;-44
2020/12/24 04:45:08;;;;;;;11.07;2.58;;;9.00;98.20;;;;;;5045810;28;20522;-43
2020/12/24 04:47:38;;;;;;;10.50;2.30;;;9.00;98.10;;;;;;5046554;28;20057;-43
2020/12/24 04:50:04;;;;;;;15.30;2.67;;;9.00;98.20;;;;;;5046097;28;20465;-43
2020/12/24 04:52:30;;;;;;;13.98;2.92;;;9.00;97.60;;;;;;5045521;28;20028;-43
2020/12/24 04:54:56;;;;;;;5.32;1.33;;;8.80;97.40;;;;;;5045876;28;20058;-43
2020/12/24 04:57:22;;;;;;;2.25;1.20;;;8.70;96.90;;;;;;5046028;28;20037;-43
2020/12/24 04:59:48;;;;;;;2.47;1.23;;;8.40;95.90;;;;;;5045252;28;20033;-43
2020/12/24 05:02:14;;;;;;;2.47;0.77;;;8.10;96.20;;;;;;5046172;28;20473;-43
2020/12/24 05:04:40;;;;;;;0.63;0.63;;;7.80;96.40;;;;;;5045790;28;20040;-44
2020/12/24 05:07:07;;;;;;;0.70;0.70;;;7.60;96.40;;;;;;5045665;28;20090;-44
2020/12/24 05:09:34;;;;;;;0.77;0.68;;;7.30;96.50;;;;;;5046421;28;20440;-44
2020/12/24 05:12:00;;;;;;;1.75;0.90;;;7.10;96.60;;;;;;5045758;28;20124;-44
2020/12/24 05:14:28;;;;;;;0.90;0.70;;;6.90;96.70;;;;;;5045258;28;20601;-43
2020/12/24 05:17:06;;;;;;;0.68;0.50;;;6.70;96.60;;;;;;5045794;28;20060;-44
2020/12/24 05:19:33;;;;;;;2.80;0.88;;;6.50;96.80;;;;;;5046968;28;20029;-43
2020/12/24 05:22:09;;;;;;;1.10;0.55;;;6.30;96.60;;;;;;5049394;28;20058;-43
2020/12/24 05:24:34;;;;;;;0.50;0.50;;;6.10;96.70;;;;;;5050231;28;20037;-43
2020/12/24 05:27:11;;;;;;;0.60;0.60;;;6.00;96.80;;;;;;5049237;28;20025;-43
2020/12/24 05:29:39;;;;;;;0.65;0.65;;;5.80;97.00;;;;;;5049896;28;20029;-44
2020/12/24 05:32:05;;;;;;;0.60;0.60;;;5.70;97.10;;;;;;5050050;28;20033;-44
2020/12/24 05:34:31;;;;;;;0.60;0.60;;;5.60;97.10;;;;;;5049210;28;20122;-44
2020/12/24 05:37:08;;;;;;;1.52;0.80;;;5.50;97.20;;;;;;5049689;28;20429;-42
2020/12/24 05:39:34;;;;;;;1.35;0.60;;;5.40;97.50;;;;;;5050177;28;20051;-43
2020/12/24 05:42:03;;;;;;;0.82;0.63;;;5.40;97.60;;;;;;5049203;28;20763;-44
2020/12/24 05:44:28;;;;;;;0.60;0.55;;;5.30;97.50;;;;;;5049328;28;20033;-44
2020/12/24 05:46:54;;;;;;;0.77;0.50;;;5.20;97.70;;;;;;5049336;28;20028;-43
2020/12/24 05:49:21;;;;;;;0.85;0.80;;;5.20;97.90;;;;;;5049088;28;20753;-44
2020/12/24 05:51:48;;;;;;;1.17;0.73;;;5.20;97.70;;;;;;5049142;28;20115;-44
2020/12/24 05:54:15;;;;;;;0.70;0.70;;;5.10;97.80;;;;;;5049317;28;20036;-45
2020/12/24 05:56:44;;;;;;;0.70;0.70;;;5.10;97.80;;;;;;5048854;28;20025;-45
2020/12/24 05:59:23;;;;;;;1.00;0.80;;;5.00;97.90;;;;;;5049069;28;20444;-45
2020/12/24 06:02:03;;;;;;;0.98;0.60;;;5.00;98.00;;;;;;5049075;28;20059;-44
2020/12/24 06:04:49;;;;;;;1.42;0.93;;;5.00;98.00;;;;;;5049063;28;20080;-43
2020/12/24 06:07:21;;;;;;;1.75;0.80;;;5.00;98.20;;;;;;5049122;28;20082;-44
2020/12/24 06:09:48;;;;;;;0.50;0.50;;;5.00;98.20;;;;;;5048742;28;20033;-43
2020/12/24 06:12:22;;;;;;;0.68;0.68;;;5.00;98.20;;;;;;5048754;28;20496;-43
2020/12/24 06:14:49;;;;;;;1.08;0.75;;;4.90;98.20;;;;;;5048627;28;20585;-44
2020/12/24 06:17:18;;;;;;;1.63;0.82;;;4.90;98.20;;;;;;5048213;28;20045;-44
2020/12/24 06:19:43;;;;;;;2.50;0.80;;;4.90;98.30;;;;;;5048967;28;20037;-45
2020/12/24 06:22:09;;;;;;;1.40;0.75;;;4.90;98.30;;;;;;5048521;28;20032;-45
2020/12/24 06:24:41;;;;;;;0.98;0.77;;;4.90;98.30;;;;;;5048324;28;20029;-44
2020/12/24 06:27:13;;;;;;;0.88;0.70;;;4.90;98.40;;;;;;5049000;28;20050;-44
2020/12/24 06:29:44;;;;;;;1.40;0.90;;;4.90;98.40;;;;;;5048810;28;20029;-44
2020/12/24 06:32:12;;;;;;;1.13;0.75;;;4.90;98.40;;;;;;5047074;28;20465;-44
2020/12/24 06:34:41;;;;;;;2.25;1.20;;;4.90;98.40;;;;;;5048908;28;20047;-44
2020/12/24 06:37:20;;;;;;;2.38;1.00;;;4.80;98.30;;;;;;5048171;28;20470;-44
2020/12/24 06:39:48;;;;;;;2.22;1.27;;;4.80;98.60;;;;;;5048366;28;20071;-43
2020/12/24 06:42:35;;;;;;;1.73;1.00;;;4.80;98.70;;;;;;5048289;28;20562;-43
2020/12/24 06:45:01;;;;;;;1.80;1.17;;;4.80;98.50;;;;;;5047977;28;20036;-43
2020/12/24 06:47:27;;;;;;;2.38;1.17;;;4.80;98.50;;;;;;5048028;28;20028;-43
2020/12/24 06:49:52;;;;;;;1.05;0.90;;;4.80;98.50;;;;;;5048215;28;20036;-44
2020/12/24 06:52:29;;;;;;;1.35;1.08;;;4.90;98.60;;;;;;5047818;28;20539;-43
2020/12/24 06:55:14;;;;;;;2.08;1.27;;;4.90;98.60;;;;;;5048330;28;20047;-44
2020/12/24 06:57:46;;;;;;;1.13;1.00;;;5.00;98.60;;;;;;5047887;28;20083;-43
2020/12/24 07:00:17;;;;;;;1.37;0.90;;;5.00;98.60;;;;;;5047973;28;20052;-43
2020/12/24 07:02:47;;;;;;;1.83;1.38;;;5.00;98.50;;;;;;5048352;28;20302;-44
2020/12/24 07:05:40;;;;;;;1.60;1.35;;;5.00;98.50;;;;;;5047478;28;20037;-43
2020/12/24 07:08:07;;;;;;;1.60;1.15;;;5.00;98.50;;;;;;5047778;28;20032;-43
2020/12/24 07:10:46;;;;;;;4.68;1.50;;;5.00;98.40;;;;;;5048414;28;20037;-43
2020/12/24 07:13:37;;;;;;;1.45;1.30;;;5.00;98.50;;;;;;5047263;28;20041;-44
2020/12/24 07:16:04;;;;;;;2.08;1.15;;;5.00;98.50;;;;;;5047367;28;20129;-43
2020/12/24 07:18:30;;;;;;;1.27;1.10;;;5.10;98.60;;;;;;5047861;28;20036;-43
2020/12/24 07:21:00;;;;;;;1.23;1.10;;;5.10;98.50;;;;;;5047111;28;20033;-43
2020/12/24 07:23:34;;;;;;;1.35;0.98;;;5.10;98.40;;;;;;5047723;28;20384;-44
2020/12/24 07:26:02;;;;;;;2.22;0.98;;;5.20;98.50;;;;;;5047823;28;20025;-44
2020/12/24 07:28:41;;;;;;;1.42;1.33;;;5.20;98.50;;;;;;5047273;28;20028;-44
2020/12/24 07:31:10;;;;;;;1.92;1.30;;;5.20;98.50;;;;;;5047262;28;20024;-43
2020/12/24 07:33:44;;;;;;;3.13;2.03;;;5.20;98.40;;;;;;5047236;28;20075;-44
2020/12/24 07:36:10;;;;;;;2.00;1.80;;;5.20;98.40;;;;;;5047789;28;20025;-44
2020/12/24 07:38:36;;;;;;;1.65;1.35;;;5.20;98.40;;;;;;5047689;28;20082;-43
2020/12/24 07:41:02;;;;;;;1.48;1.20;;;5.20;98.40;;;;;;5046650;28;20476;-43
2020/12/24 07:43:27;;;;;;;1.52;1.25;;;5.20;98.40;;;;;;5045377;28;20146;-43
2020/12/24 07:45:53;;;;;;;2.20;1.67;;;5.20;98.30;;;;;;5046959;28;20056;-44
2020/12/24 07:48:23;;;;;;;3.42;1.58;;;5.30;98.40;;;;;;5043717;28;20032;-43
2020/12/24 07:50:51;;;;;;;2.47;1.55;;;5.30;98.30;;;;;;5045715;28;20021;-43
2020/12/24 07:53:18;;;;;;;1.50;1.40;;;5.20;98.20;;;;;;5046118;28;20045;-43
2020/12/24 07:55:44;;;;;;;2.15;1.98;;;5.20;98.20;;;;;;5045796;28;20032;-44
2020/12/24 07:58:12;;;;;;;3.42;2.20;;;5.20;98.30;;;;;;5045687;28;20483;-44
2020/12/24 08:00:48;;;;;;;3.40;2.72;;;5.20;98.30;;;;;;5046560;28;20673;-44
2020/12/24 08:03:16;;;;;;;3.28;2.20;;;5.20;98.30;;;;;;5046081;28;20412;-44
2020/12/24 08:05:43;;;;;;;1.77;1.65;;;5.20;98.30;;;;;;5057499;28;20020;-44
2020/12/24 08:08:09;;;;;;;2.20;1.30;;;5.30;98.30;;;;;;5059794;28;20040;-44
2020/12/24 08:10:41;;;;;;;1.90;1.70;;;5.20;98.20;;;;;;5058430;28;20056;-43
2020/12/24 08:13:08;;;;;;;1.88;1.30;;;5.20;98.30;;;;;;5065178;28;20040;-43
2020/12/24 08:15:42;;;;;;;1.77;0.98;;;5.20;98.30;;;;;;5056234;28;20537;-44
2020/12/24 08:18:10;;;;;;;1.63;1.10;;;5.20;98.30;;;;;;5053260;28;20076;-43
2020/12/24 08:20:49;;;;;;;2.28;1.30;;;5.20;98.30;;;;;;5047975;28;20021;-43
2020/12/24 08:23:27;;;;;;;2.00;1.40;;;5.10;98.40;;;;;;5045994;28;20055;-43
2020/12/24 08:25:55;;;;;;;3.28;2.15;;;5.10;98.40;;;;;;5062660;28;20083;-44
2020/12/24 08:28:23;;;;;;;2.47;1.55;;;5.10;98.40;;;;;;5054675;28;20091;-44
2020/12/24 08:30:49;;;;;;;2.38;1.80;;;5.20;98.50;;;;;;5055680;28;20072;-43
2020/12/24 08:33:17;;;;;;;3.45;2.17;;;5.20;98.40;;;;;;5062392;28;20140;-43
2020/12/24 08:35:42;;;;;;;2.42;1.80;;;5.20;98.40;;;;;;5067054;28;20036;-43
2020/12/24 08:38:13;;;;;;;2.88;2.28;;;5.30;98.40;;;;;;5065724;28;20035;-43
2020/12/24 08:40:39;;;;;;;1.98;1.88;;;5.20;98.50;;;;;;5061178;28;20066;-43
2020/12/24 08:43:10;;;;;;;3.45;1.98;;;5.20;98.50;;;;;;5066802;28;20476;-43
2020/12/24 08:45:46;;;;;;;3.10;2.60;;;5.30;98.60;;;;;;5065921;28;20395;-43
2020/12/24 08:48:33;;;;;;;3.13;2.47;;;5.30;98.60;;;;;;5066187;28;20119;-43
2020/12/24 08:50:59;;;;;;;2.85;2.08;;;5.30;98.50;;;;;;5065914;28;20094;-44
2020/12/24 08:53:28;;;;;;;2.17;1.92;;;5.30;98.40;;;;;;5064952;28;20044;-43
2020/12/24 08:55:54;;;;;;;2.58;2.20;;;5.30;98.50;;;;;;5045831;28;20108;-43
2020/12/24 08:58:20;;;;;;;2.10;2.00;;;5.30;98.50;;;;;;5059583;28;20029;-45
2020/12/24 09:00:46;;;;;;;2.60;2.40;;;5.30;98.60;;;;;;5055374;28;20025;-43
2020/12/24 09:03:29;;;;;;;2.90;2.70;;;5.30;98.50;;;;;;5046082;28;20032;-43
2020/12/24 09:05:55;;;;;;;3.25;2.47;;;5.30;98.60;;;;;;5045580;28;20017;-42
2020/12/24 09:08:27;;;;;;;3.35;2.47;;;5.30;98.60;;;;;;5045712;28;20101;-43
2020/12/24 09:10:54;;;;;;;2.95;2.40;;;5.30;98.50;;;;;;5046033;28;20033;-43
2020/12/24 09:13:20;;;;;;;2.90;2.45;;;5.40;98.60;;;;;;5045149;28;20036;-43
2020/12/24 09:15:46;;;;;;;2.38;2.17;;;5.40;98.60;;;;;;5045646;28;20729;-43
2020/12/24 09:18:12;;;;;;;3.15;2.40;;;5.40;98.60;;;;;;5046250;28;20484;-44
2020/12/24 09:20:38;;;;;;;2.47;2.28;;;5.40;98.60;;;;;;5053044;28;20028;-44
2020/12/24 09:23:09;;;;;;;2.72;2.53;;;5.40;98.60;;;;;;5060227;28;20542;-43
2020/12/24 09:25:37;;;;;;;3.03;2.58;;;5.40;98.60;;;;;;5060637;28;20110;-42
2020/12/24 09:28:05;;;;;;;3.50;2.38;;;5.40;98.60;;;;;;5055762;28;20083;-43
2020/12/24 09:30:31;;;;;;;3.38;2.33;;;5.50;98.60;;;;;;5055397;28;20480;-43
2020/12/24 09:32:58;;;;;;;2.30;2.10;;;5.50;98.50;;;;;;5048571;28;20033;-43
2020/12/24 09:35:25;;;;;;;2.42;2.22;;;5.50;98.50;;;;;;5045430;28;20477;-43
2020/12/24 09:37:52;;;;;;;2.35;2.15;;;5.50;98.60;;;;;;5045652;28;20021;-42
2020/12/24 09:40:17;;;;;;;4.00;2.70;;;5.50;98.60;;;;;;5044865;28;20033;-43
2020/12/24 09:42:43;;;;;;;3.17;2.50;;;5.50;98.60;;;;;;5045599;28;20392;-43
2020/12/24 09:45:09;;;;;;;2.63;2.42;;;5.50;98.50;;;;;;5045893;28;20495;-43
2020/12/24 09:47:35;;;;;;;3.75;2.42;;;5.50;98.50;;;;;;5045320;28;20063;-43
2020/12/24 09:50:00;;;;;;;3.67;3.38;;;5.50;98.60;;;;;;5045403;28;20028;-44
2020/12/24 09:52:26;;;;;;;2.95;2.47;;;5.50;98.70;;;;;;5045824;28;20032;-44
2020/12/24 09:54:51;;;;;;;2.83;2.13;;;5.50;98.80;;;;;;5044951;28;20226;-44
2020/12/24 09:57:17;;;;;;;3.92;2.67;;;5.60;98.80;;;;;;5045761;28;20021;-43
2020/12/24 09:59:42;;;;;;;3.13;2.33;;;5.60;98.70;;;;;;5045446;28;20712;-44
2020/12/24 10:02:08;;;;;;;5.30;2.65;;;5.70;98.80;;;;;;5042876;28;20480;-43
2020/12/24 10:04:33;;;;;;;4.55;2.60;;;5.70;98.70;;;;;;5045562;28;20025;-43
2020/12/24 10:06:59;;;;;;;3.05;2.30;;;5.70;98.70;;;;;;5048620;28;20473;-43
2020/12/24 10:09:24;;;;;;;3.28;2.50;;;5.70;98.70;;;;;;5048439;28;20053;-44
2020/12/24 10:11:50;;;;;;;3.70;2.70;;;5.80;98.70;;;;;;5049705;28;20499;-44
2020/12/24 10:14:16;;;;;;;2.47;1.98;;;5.80;98.60;;;;;;5069175;28;20129;-43
2020/12/24 10:16:42;;;;;;;2.45;1.85;;;5.80;98.70;;;;;;5068438;28;20045;-43
2020/12/24 10:19:08;;;;;;;2.75;1.95;;;5.80;98.70;;;;;;5062439;28;20531;-44
2020/12/24 10:21:33;;;;;;;4.00;2.20;;;5.90;98.70;;;;;;5058319;28;20122;-43
2020/12/24 10:23:58;;;;;;;4.20;2.20;;;5.90;98.60;;;;;;5057359;28;20488;-44
2020/12/24 10:26:24;;;;;;;3.72;1.92;;;5.90;98.60;;;;;;5065387;28;20024;-43
2020/12/24 10:28:50;;;;;;;3.58;2.25;;;5.90;98.70;;;;;;5068706;28;20018;-43
2020/12/24 10:31:15;;;;;;;5.10;1.90;;;5.90;98.60;;;;;;5068055;28;20029;-43
2020/12/24 10:33:40;;;;;;;2.38;1.92;;;5.90;98.70;;;;;;5068415;28;20028;-44
2020/12/24 10:36:06;;;;;;;4.63;1.83;;;6.00;98.70;;;;;;5068256;28;20509;-44
2020/12/24 10:38:32;;;;;;;4.10;2.00;;;6.00;98.70;;;;;;5068654;28;20040;-43
2020/12/24 10:40:57;;;;;;;4.45;2.25;;;6.00;98.50;;;;;;5068526;28;20132;-43
2020/12/24 10:43:23;;;;;;;4.10;2.10;;;6.00;98.50;;;;;;5068412;28;20468;-44
2020/12/24 10:45:48;;;;;;;4.07;1.80;;;6.00;98.60;;;;;;5068345;28;20032;-44
2020/12/24 10:48:14;;;;;;;3.97;2.03;;;6.00;98.70;;;;;;5068512;28;20024;-43
2020/12/24 10:50:40;;;;;;;3.80;1.70;;;6.00;98.60;;;;;;5068129;28;20024;-43
2020/12/24 10:53:05;;;;;;;6.50;2.28;;;6.10;98.70;;;;;;5068360;28;20059;-44
2020/12/24 10:55:31;;;;;;;4.35;2.38;;;6.10;98.60;;;;;;5068620;28;20060;-44
2020/12/24 10:57:56;;;;;;;6.70;2.13;;;6.10;98.60;;;;;;5068130;28;20035;-44
2020/12/24 11:00:22;;;;;;;5.55;2.40;;;6.10;98.70;;;;;;5067825;28;20041;-43
2020/12/24 11:02:47;;;;;;;5.80;2.28;;;6.20;98.50;;;;;;5067701;28;20060;-43
2020/12/24 11:05:13;;;;;;;5.00;1.92;;;6.20;98.50;;;;;;5067752;28;20076;-44
2020/12/24 11:07:38;;;;;;;4.13;1.80;;;6.20;98.50;;;;;;5067965;28;20048;-44
2020/12/24 11:10:04;;;;;;;5.18;2.20;;;6.20;98.50;;;;;;5068195;28;20058;-44
2020/12/24 11:12:30;;;;;;;6.20;2.10;;;6.30;98.60;;;;;;5067969;28;20020;-44
2020/12/24 11:14:55;;;;;;;4.88;2.20;;;6.30;98.60;;;;;;5067487;28;20244;-43
2020/12/24 11:17:21;;;;;;;7.80;2.00;;;6.30;98.60;;;;;;5066883;28;20135;-43
2020/12/24 11:19:46;;;;;;;4.43;2.28;;;6.40;98.60;;;;;;5067026;28;20139;-43
2020/12/24 11:22:12;;;;;;;3.78;1.60;;;6.40;98.50;;;;;;5048804;28;20112;-44
2020/12/24 11:24:38;;;;;;;5.72;2.05;;;6.50;98.50;;;;;;5047805;28;20033;-44
2020/12/24 11:27:03;;;;;;;3.47;1.73;;;6.50;98.50;;;;;;5047490;28;20032;-44
2020/12/24 11:29:29;;;;;;;3.65;2.05;;;6.50;98.50;;;;;;5045885;28;20032;-42
2020/12/24 11:31:57;;;;;;;5.95;2.00;;;6.60;98.40;;;;;;5047302;28;20029;-43
2020/12/24 11:34:23;;;;;;;6.05;1.92;;;6.60;98.40;;;;;;5047169;28;20128;-43
2020/12/24 11:36:49;;;;;;;4.93;2.10;;;6.60;98.30;;;;;;5047135;28;20333;-43
2020/12/24 11:39:15;;;;;;;6.10;2.33;;;6.60;98.40;;;;;;5046969;28;20472;-43
2020/12/24 11:41:40;;;;;;;6.25;2.58;;;6.60;98.30;;;;;;5047170;28;20107;-43
2020/12/24 11:44:06;;;;;;;6.43;2.70;;;6.70;98.30;;;;;;5046771;28;20484;-43
2020/12/24 11:46:31;;;;;;;5.55;2.10;;;6.70;98.30;;;;;;5045974;28;20396;-43
2020/12/24 11:48:57;;;;;;;4.35;1.92;;;6.70;98.30;;;;;;5043102;28;20029;-43
2020/12/24 11:51:23;;;;;;;5.72;2.00;;;6.70;98.40;;;;;;5036900;28;20037;-43
2020/12/24 11:53:49;;;;;;;7.07;2.03;;;6.70;98.40;;;;;;5036661;28;20029;-43
2020/12/24 11:56:18;;;;;;;7.70;2.53;;;6.80;98.40;;;;;;5050406;28;20074;-44
2020/12/24 11:58:45;;;;;;;6.25;1.98;;;6.80;98.20;;;;;;5042702;28;20657;-43
2020/12/24 12:01:21;;;;;;;5.28;1.90;;;6.90;98.30;;;;;;5036583;28;20037;-43
2020/12/24 12:03:48;;;;;;;9.30;2.25;;;6.90;98.30;;;;;;5064719;28;20028;-44
2020/12/24 12:06:14;;;;;;;7.88;2.03;;;6.90;98.20;;;;;;5066702;28;20040;-44
2020/12/24 12:08:39;;;;;;;5.10;1.92;;;6.90;98.20;;;;;;5066346;28;20060;-43
2020/12/24 12:11:06;;;;;;;7.35;2.20;;;7.00;98.30;;;;;;5067105;28;20068;-43
2020/12/24 12:13:32;;;;;;;6.28;2.25;;;7.00;98.20;;;;;;5066287;28;20436;-43
2020/12/24 12:15:58;;;;;;;5.18;1.80;;;7.00;98.10;;;;;;5065945;28;20020;-43
2020/12/24 12:18:24;;;;;;;6.70;2.47;;;7.10;98.20;;;;;;5066513;28;20024;-43
2020/12/24 12:20:51;;;;;;;10.10;2.00;;;7.10;98.20;;;;;;5066400;28;20024;-43
2020/12/24 12:23:17;;;;;;;6.90;1.95;;;7.10;98.20;;;;;;5066478;28;20055;-44
2020/12/24 12:25:42;;;;;;;9.68;2.30;;;7.10;98.10;;;;;;5066315;28;20085;-44
2020/12/24 12:28:08;;;;;;;9.82;2.50;;;7.10;97.60;;;;;;5059014;28;20029;-43
2020/12/24 12:30:34;;;;;;;7.50;2.30;;;7.10;97.50;;;;;;5057076;28;20060;-43
2020/12/24 12:33:00;;;;;;;8.48;2.42;;;7.10;97.60;;;;;;5048763;28;20029;-42
2020/12/24 12:35:25;;;;;;;11.27;2.33;;;7.00;97.60;;;;;;5046367;28;20039;-43
2020/12/24 12:37:51;;;;;;;8.80;1.80;;;7.00;97.60;;;;;;5045982;28;20029;-43
2020/12/24 12:40:16;;;;;;;6.72;1.83;;;7.00;97.70;;;;;;5046323;28;20050;-44
2020/12/24 12:42:42;;;;;;;18.38;2.47;;;7.00;97.80;;;;;;5053434;28;20041;-43
2020/12/24 12:45:08;;;;;;;11.57;2.17;;;7.00;97.30;;;;;;5052363;28;20025;-43
2020/12/24 12:47:37;;;;;;;5.50;1.70;;;6.90;97.50;;;;;;5056053;28;20052;-43
2020/12/24 12:50:09;;;;;;;3.72;1.50;;;7.00;97.60;;;;;;5045869;28;20116;-43
2020/12/24 12:52:35;;;;;;;7.80;1.80;;;6.90;97.40;;;;;;5046196;28;20472;-43
2020/12/24 12:55:01;;;;;;;7.78;1.73;;;6.90;97.20;;;;;;5056931;28;20033;-42